sensor_id;sensor_type;location;lat;lon;timestamp;P1;durP1;ratioP1;P2;durP2;ratioP2
68212;SDS011;55035;47.792;8.724;2023-11-21T00:00:19;8.50;;;1.50;;
68212;SDS011;55035;47.792;8.724;2023-11-21T00:02:46;8.23;;;1.85;;
68212;SDS011;55035;47.792;8.724;2023-11-21T00:05:13;10.93;;;2.05;;
68212;SDS011;55035;47.792;8.724;2023-11-21T00:07:40;8.32;;;2.55;;
68212;SDS011;55035;47.792;8.724;2023-11-21T00:10:08;8.65;;;1.90;;
68212;SDS011;55035;47.792;8.724;2023-11-21T00:12:37;9.85;;;2.65;;
68212;SDS011;55035;47.792;8.724;2023-11-21T00:15:04;8.67;;;3.20;;
68212;SDS011;55035;47.792;8.724;2023-11-21T00:17:31;8.88;;;3.03;;
68212;SDS011;55035;47.792;8.724;2023-11-21T00:19:57;8.45;;;4.30;;
68212;SDS011;55035;47.792;8.724;2023-11-21T00:22:24;10.55;;;4.97;;
68212;SDS011;55035;47.792;8.724;2023-11-21T00:24:51;10.00;;;5.37;;
68212;SDS011;55035;47.792;8.724;2023-11-21T00:27:17;8.88;;;5.35;;
68212;SDS011;55035;47.792;8.724;2023-11-21T00:29:47;10.57;;;5.40;;
68212;SDS011;55035;47.792;8.724;2023-11-21T00:32:13;8.27;;;3.65;;
68212;SDS011;55035;47.792;8.724;2023-11-21T00:34:40;9.18;;;3.72;;
68212;SDS011;55035;47.792;8.724;2023-11-21T00:37:07;8.38;;;2.28;;
68212;SDS011;55035;47.792;8.724;2023-11-21T00:39:34;7.70;;;2.70;;
68212;SDS011;55035;47.792;8.724;2023-11-21T00:42:01;9.03;;;2.63;;
68212;SDS011;55035;47.792;8.724;2023-11-21T00:44:27;8.55;;;2.33;;
68212;SDS011;55035;47.792;8.724;2023-11-21T00:46:55;10.38;;;4.03;;
68212;SDS011;55035;47.792;8.724;2023-11-21T00:49:22;10.00;;;3.40;;
68212;SDS011;55035;47.792;8.724;2023-11-21T00:51:48;9.70;;;4.35;;
68212;SDS011;55035;47.792;8.724;2023-11-21T00:54:15;11.55;;;6.35;;
68212;SDS011;55035;47.792;8.724;2023-11-21T00:56:43;11.73;;;8.75;;
68212;SDS011;55035;47.792;8.724;2023-11-21T00:59:12;13.43;;;9.05;;
68212;SDS011;55035;47.792;8.724;2023-11-21T01:01:40;11.55;;;8.38;;
68212;SDS011;55035;47.792;8.724;2023-11-21T01:04:08;12.18;;;9.75;;
68212;SDS011;55035;47.792;8.724;2023-11-21T01:06:35;12.57;;;10.85;;
68212;SDS011;55035;47.792;8.724;2023-11-21T01:09:02;14.27;;;11.40;;
68212;SDS011;55035;47.792;8.724;2023-11-21T01:11:33;13.02;;;11.70;;
68212;SDS011;55035;47.792;8.724;2023-11-21T01:14:01;14.50;;;12.40;;
68212;SDS011;55035;47.792;8.724;2023-11-21T01:16:30;12.95;;;11.18;;
68212;SDS011;55035;47.792;8.724;2023-11-21T01:18:57;14.95;;;10.50;;
68212;SDS011;55035;47.792;8.724;2023-11-21T01:21:26;11.70;;;10.35;;
68212;SDS011;55035;47.792;8.724;2023-11-21T01:23:53;13.00;;;11.10;;
68212;SDS011;55035;47.792;8.724;2023-11-21T01:28:57;13.35;;;9.40;;
68212;SDS011;55035;47.792;8.724;2023-11-21T01:31:24;11.73;;;9.90;;
68212;SDS011;55035;47.792;8.724;2023-11-21T01:33:54;13.30;;;10.57;;
68212;SDS011;55035;47.792;8.724;2023-11-21T01:36:21;11.77;;;9.83;;
68212;SDS011;55035;47.792;8.724;2023-11-21T01:38:50;12.25;;;8.68;;
68212;SDS011;55035;47.792;8.724;2023-11-21T01:41:16;13.27;;;9.30;;
68212;SDS011;55035;47.792;8.724;2023-11-21T01:43:43;14.57;;;11.23;;
68212;SDS011;55035;47.792;8.724;2023-11-21T01:46:10;12.30;;;11.00;;
68212;SDS011;55035;47.792;8.724;2023-11-21T01:48:37;12.68;;;11.38;;
68212;SDS011;55035;47.792;8.724;2023-11-21T01:51:04;12.25;;;10.50;;
68212;SDS011;55035;47.792;8.724;2023-11-21T01:53:31;13.50;;;10.35;;
68212;SDS011;55035;47.792;8.724;2023-11-21T01:55:59;13.52;;;10.18;;
68212;SDS011;55035;47.792;8.724;2023-11-21T01:58:26;12.50;;;10.67;;
68212;SDS011;55035;47.792;8.724;2023-11-21T02:00:53;13.50;;;11.38;;
68212;SDS011;55035;47.792;8.724;2023-11-21T02:03:20;12.88;;;11.48;;
68212;SDS011;55035;47.792;8.724;2023-11-21T02:05:48;12.65;;;11.27;;
68212;SDS011;55035;47.792;8.724;2023-11-21T02:08:15;12.50;;;11.07;;
68212;SDS011;55035;47.792;8.724;2023-11-21T02:10:43;15.80;;;11.38;;
68212;SDS011;55035;47.792;8.724;2023-11-21T02:13:11;14.52;;;12.23;;
68212;SDS011;55035;47.792;8.724;2023-11-21T02:15:41;15.88;;;14.18;;
68212;SDS011;55035;47.792;8.724;2023-11-21T02:18:09;14.57;;;13.07;;
68212;SDS011;55035;47.792;8.724;2023-11-21T02:20:37;14.03;;;11.87;;
68212;SDS011;55035;47.792;8.724;2023-11-21T02:23:05;13.80;;;12.15;;
68212;SDS011;55035;47.792;8.724;2023-11-21T02:25:33;14.40;;;12.60;;
68212;SDS011;55035;47.792;8.724;2023-11-21T02:28:03;14.77;;;12.65;;
68212;SDS011;55035;47.792;8.724;2023-11-21T02:30:32;13.80;;;11.93;;
68212;SDS011;55035;47.792;8.724;2023-11-21T02:33:00;13.93;;;12.52;;
68212;SDS011;55035;47.792;8.724;2023-11-21T02:35:27;13.95;;;12.65;;
68212;SDS011;55035;47.792;8.724;2023-11-21T02:38:02;13.67;;;12.43;;
68212;SDS011;55035;47.792;8.724;2023-11-21T02:40:31;12.98;;;11.77;;
68212;SDS011;55035;47.792;8.724;2023-11-21T02:42:58;14.45;;;13.10;;
68212;SDS011;55035;47.792;8.724;2023-11-21T02:45:25;13.53;;;12.23;;
68212;SDS011;55035;47.792;8.724;2023-11-21T02:47:52;12.75;;;11.45;;
68212;SDS011;55035;47.792;8.724;2023-11-21T02:50:23;12.75;;;11.45;;
68212;SDS011;55035;47.792;8.724;2023-11-21T02:52:51;12.70;;;11.52;;
68212;SDS011;55035;47.792;8.724;2023-11-21T02:55:20;12.85;;;11.65;;
68212;SDS011;55035;47.792;8.724;2023-11-21T02:57:53;13.93;;;12.63;;
68212;SDS011;55035;47.792;8.724;2023-11-21T03:00:21;13.00;;;11.75;;
68212;SDS011;55035;47.792;8.724;2023-11-21T03:02:50;13.50;;;12.10;;
68212;SDS011;55035;47.792;8.724;2023-11-21T03:05:20;14.07;;;12.60;;
68212;SDS011;55035;47.792;8.724;2023-11-21T03:07:48;14.20;;;12.88;;
68212;SDS011;55035;47.792;8.724;2023-11-21T03:10:14;14.07;;;12.68;;
68212;SDS011;55035;47.792;8.724;2023-11-21T03:12:42;13.77;;;12.38;;
68212;SDS011;55035;47.792;8.724;2023-11-21T03:15:11;13.13;;;11.87;;
68212;SDS011;55035;47.792;8.724;2023-11-21T03:17:38;14.10;;;11.85;;
68212;SDS011;55035;47.792;8.724;2023-11-21T03:20:05;13.07;;;11.77;;
68212;SDS011;55035;47.792;8.724;2023-11-21T03:22:36;13.23;;;11.73;;
68212;SDS011;55035;47.792;8.724;2023-11-21T03:25:03;12.30;;;11.02;;
68212;SDS011;55035;47.792;8.724;2023-11-21T03:27:30;12.52;;;11.27;;
68212;SDS011;55035;47.792;8.724;2023-11-21T03:29:56;14.13;;;12.63;;
68212;SDS011;55035;47.792;8.724;2023-11-21T03:32:25;12.90;;;11.60;;
68212;SDS011;55035;47.792;8.724;2023-11-21T03:34:52;12.32;;;11.05;;
68212;SDS011;55035;47.792;8.724;2023-11-21T03:37:20;13.40;;;11.52;;
68212;SDS011;55035;47.792;8.724;2023-11-21T03:39:47;13.25;;;11.43;;
68212;SDS011;55035;47.792;8.724;2023-11-21T03:45:10;13.10;;;11.48;;
68212;SDS011;55035;47.792;8.724;2023-11-21T03:47:39;15.30;;;12.85;;
68212;SDS011;55035;47.792;8.724;2023-11-21T03:50:06;14.03;;;11.83;;
68212;SDS011;55035;47.792;8.724;2023-11-21T03:52:34;13.35;;;11.95;;
68212;SDS011;55035;47.792;8.724;2023-11-21T03:55:05;13.75;;;11.90;;
68212;SDS011;55035;47.792;8.724;2023-11-21T03:57:32;13.57;;;12.23;;
68212;SDS011;55035;47.792;8.724;2023-11-21T03:59:59;13.93;;;12.13;;
68212;SDS011;55035;47.792;8.724;2023-11-21T04:02:26;13.77;;;12.00;;
68212;SDS011;55035;47.792;8.724;2023-11-21T04:04:54;13.63;;;12.20;;
68212;SDS011;55035;47.792;8.724;2023-11-21T04:07:25;13.15;;;11.85;;
68212;SDS011;55035;47.792;8.724;2023-11-21T04:09:52;13.35;;;11.93;;
68212;SDS011;55035;47.792;8.724;2023-11-21T04:12:19;15.13;;;12.45;;
68212;SDS011;55035;47.792;8.724;2023-11-21T04:14:46;13.80;;;11.67;;
68212;SDS011;55035;47.792;8.724;2023-11-21T04:17:13;13.43;;;11.88;;
68212;SDS011;55035;47.792;8.724;2023-11-21T04:19:40;14.57;;;12.73;;
68212;SDS011;55035;47.792;8.724;2023-11-21T04:22:10;15.55;;;13.98;;
68212;SDS011;55035;47.792;8.724;2023-11-21T04:24:36;17.13;;;15.33;;
68212;SDS011;55035;47.792;8.724;2023-11-21T04:27:03;15.40;;;13.63;;
68212;SDS011;55035;47.792;8.724;2023-11-21T04:29:30;14.83;;;13.20;;
68212;SDS011;55035;47.792;8.724;2023-11-21T04:31:57;16.02;;;13.48;;
68212;SDS011;55035;47.792;8.724;2023-11-21T04:34:23;14.82;;;13.43;;
68212;SDS011;55035;47.792;8.724;2023-11-21T04:36:50;14.38;;;12.30;;
68212;SDS011;55035;47.792;8.724;2023-11-21T04:39:18;14.43;;;12.90;;
68212;SDS011;55035;47.792;8.724;2023-11-21T04:41:45;15.25;;;12.73;;
68212;SDS011;55035;47.792;8.724;2023-11-21T04:44:11;14.23;;;12.37;;
68212;SDS011;55035;47.792;8.724;2023-11-21T04:46:38;15.30;;;13.70;;
68212;SDS011;55035;47.792;8.724;2023-11-21T04:49:05;14.13;;;12.73;;
68212;SDS011;55035;47.792;8.724;2023-11-21T04:51:31;13.73;;;12.33;;
68212;SDS011;55035;47.792;8.724;2023-11-21T04:53:58;13.93;;;12.50;;
68212;SDS011;55035;47.792;8.724;2023-11-21T04:56:26;14.27;;;12.80;;
68212;SDS011;55035;47.792;8.724;2023-11-21T04:58:53;14.40;;;12.70;;
68212;SDS011;55035;47.792;8.724;2023-11-21T05:01:19;14.32;;;12.82;;
68212;SDS011;55035;47.792;8.724;2023-11-21T05:03:46;13.93;;;12.45;;
68212;SDS011;55035;47.792;8.724;2023-11-21T05:06:14;14.18;;;12.65;;
68212;SDS011;55035;47.792;8.724;2023-11-21T05:08:41;15.05;;;13.55;;
68212;SDS011;55035;47.792;8.724;2023-11-21T05:11:07;13.85;;;12.40;;
68212;SDS011;55035;47.792;8.724;2023-11-21T05:13:37;13.45;;;12.05;;
68212;SDS011;55035;47.792;8.724;2023-11-21T05:16:04;14.48;;;12.98;;
68212;SDS011;55035;47.792;8.724;2023-11-21T05:18:32;13.50;;;12.02;;
68212;SDS011;55035;47.792;8.724;2023-11-21T05:21:00;14.35;;;12.68;;
68212;SDS011;55035;47.792;8.724;2023-11-21T05:23:27;13.93;;;12.52;;
68212;SDS011;55035;47.792;8.724;2023-11-21T05:25:53;14.70;;;13.30;;
68212;SDS011;55035;47.792;8.724;2023-11-21T05:28:21;14.15;;;12.75;;
68212;SDS011;55035;47.792;8.724;2023-11-21T05:30:49;15.23;;;13.52;;
68212;SDS011;55035;47.792;8.724;2023-11-21T05:33:16;15.57;;;14.07;;
68212;SDS011;55035;47.792;8.724;2023-11-21T05:35:43;14.40;;;12.90;;
68212;SDS011;55035;47.792;8.724;2023-11-21T05:38:09;15.43;;;13.90;;
68212;SDS011;55035;47.792;8.724;2023-11-21T05:40:37;14.60;;;13.10;;
68212;SDS011;55035;47.792;8.724;2023-11-21T05:43:03;14.77;;;13.30;;
68212;SDS011;55035;47.792;8.724;2023-11-21T05:45:30;15.48;;;13.52;;
68212;SDS011;55035;47.792;8.724;2023-11-21T05:47:58;15.20;;;13.70;;
68212;SDS011;55035;47.792;8.724;2023-11-21T05:50:25;15.30;;;13.70;;
68212;SDS011;55035;47.792;8.724;2023-11-21T05:52:52;15.93;;;14.33;;
68212;SDS011;55035;47.792;8.724;2023-11-21T05:55:18;16.20;;;14.50;;
68212;SDS011;55035;47.792;8.724;2023-11-21T05:57:46;15.05;;;13.45;;
68212;SDS011;55035;47.792;8.724;2023-11-21T06:00:13;16.10;;;14.23;;
68212;SDS011;55035;47.792;8.724;2023-11-21T06:02:45;17.60;;;15.83;;
68212;SDS011;55035;47.792;8.724;2023-11-21T06:05:13;17.33;;;15.43;;
68212;SDS011;55035;47.792;8.724;2023-11-21T06:07:40;16.95;;;15.02;;
68212;SDS011;55035;47.792;8.724;2023-11-21T06:10:07;18.75;;;15.82;;
68212;SDS011;55035;47.792;8.724;2023-11-21T06:12:35;17.30;;;15.57;;
68212;SDS011;55035;47.792;8.724;2023-11-21T06:15:02;18.15;;;16.38;;
68212;SDS011;55035;47.792;8.724;2023-11-21T06:17:30;19.35;;;17.27;;
68212;SDS011;55035;47.792;8.724;2023-11-21T06:19:57;18.88;;;16.00;;
68212;SDS011;55035;47.792;8.724;2023-11-21T06:22:25;20.23;;;18.23;;
68212;SDS011;55035;47.792;8.724;2023-11-21T06:24:51;19.58;;;17.48;;
68212;SDS011;55035;47.792;8.724;2023-11-21T06:27:18;20.83;;;18.73;;
68212;SDS011;55035;47.792;8.724;2023-11-21T06:29:45;20.33;;;18.23;;
68212;SDS011;55035;47.792;8.724;2023-11-21T06:32:12;19.80;;;17.77;;
68212;SDS011;55035;47.792;8.724;2023-11-21T06:34:41;18.65;;;16.75;;
68212;SDS011;55035;47.792;8.724;2023-11-21T06:37:08;19.98;;;17.85;;
68212;SDS011;55035;47.792;8.724;2023-11-21T06:39:36;20.08;;;17.77;;
68212;SDS011;55035;47.792;8.724;2023-11-21T06:42:03;21.60;;;18.33;;
68212;SDS011;55035;47.792;8.724;2023-11-21T06:44:30;20.98;;;17.98;;
68212;SDS011;55035;47.792;8.724;2023-11-21T06:46:56;21.90;;;17.93;;
68212;SDS011;55035;47.792;8.724;2023-11-21T06:49:23;21.40;;;19.10;;
68212;SDS011;55035;47.792;8.724;2023-11-21T06:51:49;21.38;;;18.80;;
68212;SDS011;55035;47.792;8.724;2023-11-21T06:54:16;20.73;;;16.87;;
68212;SDS011;55035;47.792;8.724;2023-11-21T06:56:44;20.38;;;18.17;;
68212;SDS011;55035;47.792;8.724;2023-11-21T06:59:11;19.42;;;17.42;;
68212;SDS011;55035;47.792;8.724;2023-11-21T07:01:37;20.70;;;18.45;;
68212;SDS011;55035;47.792;8.724;2023-11-21T07:04:06;19.67;;;17.55;;
68212;SDS011;55035;47.792;8.724;2023-11-21T07:06:34;20.95;;;17.55;;
68212;SDS011;55035;47.792;8.724;2023-11-21T07:09:01;22.13;;;18.90;;
68212;SDS011;55035;47.792;8.724;2023-11-21T07:11:28;21.57;;;17.43;;
68212;SDS011;55035;47.792;8.724;2023-11-21T07:13:56;19.35;;;17.08;;
68212;SDS011;55035;47.792;8.724;2023-11-21T07:16:23;21.45;;;17.70;;
68212;SDS011;55035;47.792;8.724;2023-11-21T07:18:50;22.00;;;18.93;;
68212;SDS011;55035;47.792;8.724;2023-11-21T07:21:17;21.20;;;18.95;;
68212;SDS011;55035;47.792;8.724;2023-11-21T07:23:43;22.42;;;19.35;;
68212;SDS011;55035;47.792;8.724;2023-11-21T07:26:10;22.00;;;19.55;;
68212;SDS011;55035;47.792;8.724;2023-11-21T07:28:37;22.20;;;19.80;;
68212;SDS011;55035;47.792;8.724;2023-11-21T07:31:05;23.33;;;20.45;;
68212;SDS011;55035;47.792;8.724;2023-11-21T07:33:32;22.95;;;19.58;;
68212;SDS011;55035;47.792;8.724;2023-11-21T07:35:59;24.08;;;20.35;;
68212;SDS011;55035;47.792;8.724;2023-11-21T07:38:26;21.40;;;19.13;;
68212;SDS011;55035;47.792;8.724;2023-11-21T07:40:53;24.15;;;19.80;;
68212;SDS011;55035;47.792;8.724;2023-11-21T07:43:20;22.23;;;19.30;;
68212;SDS011;55035;47.792;8.724;2023-11-21T07:45:48;20.60;;;18.00;;
68212;SDS011;55035;47.792;8.724;2023-11-21T07:48:19;22.37;;;18.87;;
68212;SDS011;55035;47.792;8.724;2023-11-21T07:50:46;22.08;;;19.40;;
68212;SDS011;55035;47.792;8.724;2023-11-21T07:53:13;22.33;;;19.60;;
68212;SDS011;55035;47.792;8.724;2023-11-21T07:55:40;21.80;;;18.88;;
68212;SDS011;55035;47.792;8.724;2023-11-21T07:58:07;20.75;;;17.95;;
68212;SDS011;55035;47.792;8.724;2023-11-21T08:00:34;19.90;;;16.48;;
68212;SDS011;55035;47.792;8.724;2023-11-21T08:03:03;19.75;;;16.70;;
68212;SDS011;55035;47.792;8.724;2023-11-21T08:05:32;20.45;;;16.42;;
68212;SDS011;55035;47.792;8.724;2023-11-21T08:07:59;21.25;;;18.20;;
68212;SDS011;55035;47.792;8.724;2023-11-21T08:10:26;21.58;;;19.23;;
68212;SDS011;55035;47.792;8.724;2023-11-21T08:12:53;20.77;;;18.47;;
68212;SDS011;55035;47.792;8.724;2023-11-21T08:15:19;19.60;;;17.50;;
68212;SDS011;55035;47.792;8.724;2023-11-21T08:17:46;21.33;;;16.85;;
68212;SDS011;55035;47.792;8.724;2023-11-21T08:20:13;21.00;;;17.15;;
68212;SDS011;55035;47.792;8.724;2023-11-21T08:22:43;20.00;;;17.67;;
68212;SDS011;55035;47.792;8.724;2023-11-21T08:25:10;20.90;;;17.38;;
68212;SDS011;55035;47.792;8.724;2023-11-21T08:27:38;20.75;;;16.17;;
68212;SDS011;55035;47.792;8.724;2023-11-21T08:30:05;20.05;;;17.38;;
68212;SDS011;55035;47.792;8.724;2023-11-21T08:32:32;20.58;;;18.45;;
68212;SDS011;55035;47.792;8.724;2023-11-21T08:34:59;18.73;;;16.73;;
68212;SDS011;55035;47.792;8.724;2023-11-21T08:37:26;19.10;;;16.67;;
68212;SDS011;55035;47.792;8.724;2023-11-21T08:39:58;20.42;;;18.23;;
68212;SDS011;55035;47.792;8.724;2023-11-21T08:42:25;20.10;;;18.00;;
68212;SDS011;55035;47.792;8.724;2023-11-21T08:44:54;23.88;;;20.02;;
68212;SDS011;55035;47.792;8.724;2023-11-21T08:47:23;22.27;;;18.80;;
68212;SDS011;55035;47.792;8.724;2023-11-21T08:49:50;19.48;;;17.05;;
68212;SDS011;55035;47.792;8.724;2023-11-21T08:52:18;17.40;;;12.48;;
68212;SDS011;55035;47.792;8.724;2023-11-21T08:54:46;13.63;;;11.23;;
68212;SDS011;55035;47.792;8.724;2023-11-21T08:57:22;16.83;;;12.43;;
68212;SDS011;55035;47.792;8.724;2023-11-21T08:59:48;14.63;;;10.87;;
68212;SDS011;55035;47.792;8.724;2023-11-21T09:02:20;18.40;;;14.18;;
68212;SDS011;55035;47.792;8.724;2023-11-21T09:04:48;18.25;;;16.00;;
68212;SDS011;55035;47.792;8.724;2023-11-21T09:07:14;17.20;;;14.70;;
68212;SDS011;55035;47.792;8.724;2023-11-21T09:09:41;15.95;;;13.70;;
68212;SDS011;55035;47.792;8.724;2023-11-21T09:12:08;15.83;;;13.30;;
68212;SDS011;55035;47.792;8.724;2023-11-21T09:14:39;16.70;;;13.60;;
68212;SDS011;55035;47.792;8.724;2023-11-21T09:17:05;15.88;;;13.57;;
68212;SDS011;55035;47.792;8.724;2023-11-21T09:19:36;17.30;;;15.10;;
68212;SDS011;55035;47.792;8.724;2023-11-21T09:22:02;16.60;;;13.25;;
68212;SDS011;55035;47.792;8.724;2023-11-21T09:24:30;16.05;;;13.10;;
68212;SDS011;55035;47.792;8.724;2023-11-21T09:26:57;11.37;;;6.90;;
68212;SDS011;55035;47.792;8.724;2023-11-21T09:29:23;11.98;;;6.57;;
68212;SDS011;55035;47.792;8.724;2023-11-21T09:31:51;9.68;;;5.30;;
68212;SDS011;55035;47.792;8.724;2023-11-21T09:34:20;9.05;;;4.70;;
68212;SDS011;55035;47.792;8.724;2023-11-21T09:36:47;8.27;;;4.40;;
68212;SDS011;55035;47.792;8.724;2023-11-21T09:39:14;8.10;;;3.92;;
68212;SDS011;55035;47.792;8.724;2023-11-21T09:41:42;8.97;;;3.80;;
68212;SDS011;55035;47.792;8.724;2023-11-21T09:44:10;8.30;;;3.60;;
68212;SDS011;55035;47.792;8.724;2023-11-21T09:46:38;7.90;;;3.53;;
68212;SDS011;55035;47.792;8.724;2023-11-21T09:49:09;7.78;;;3.63;;
68212;SDS011;55035;47.792;8.724;2023-11-21T09:51:38;8.27;;;3.80;;
68212;SDS011;55035;47.792;8.724;2023-11-21T09:54:06;7.23;;;3.00;;
68212;SDS011;55035;47.792;8.724;2023-11-21T09:56:34;6.90;;;2.45;;
68212;SDS011;55035;47.792;8.724;2023-11-21T09:59:01;5.82;;;2.25;;
68212;SDS011;55035;47.792;8.724;2023-11-21T10:01:31;6.50;;;2.58;;
68212;SDS011;55035;47.792;8.724;2023-11-21T10:03:58;7.82;;;2.60;;
68212;SDS011;55035;47.792;8.724;2023-11-21T10:06:27;6.85;;;3.00;;
68212;SDS011;55035;47.792;8.724;2023-11-21T10:08:55;6.80;;;3.10;;
68212;SDS011;55035;47.792;8.724;2023-11-21T10:11:22;6.77;;;2.70;;
68212;SDS011;55035;47.792;8.724;2023-11-21T10:13:50;7.13;;;2.90;;
68212;SDS011;55035;47.792;8.724;2023-11-21T10:16:19;6.30;;;2.60;;
68212;SDS011;55035;47.792;8.724;2023-11-21T10:18:48;7.43;;;2.88;;
68212;SDS011;55035;47.792;8.724;2023-11-21T10:21:15;6.68;;;2.70;;
68212;SDS011;55035;47.792;8.724;2023-11-21T10:23:44;6.45;;;2.15;;
68212;SDS011;55035;47.792;8.724;2023-11-21T10:26:12;6.90;;;2.40;;
68212;SDS011;55035;47.792;8.724;2023-11-21T10:28:41;5.93;;;2.30;;
68212;SDS011;55035;47.792;8.724;2023-11-21T10:31:24;5.72;;;1.80;;
68212;SDS011;55035;47.792;8.724;2023-11-21T10:33:51;5.80;;;1.70;;
68212;SDS011;55035;47.792;8.724;2023-11-21T10:36:25;6.22;;;2.03;;
68212;SDS011;55035;47.792;8.724;2023-11-21T10:38:54;5.47;;;1.63;;
68212;SDS011;55035;47.792;8.724;2023-11-21T10:41:22;6.18;;;2.25;;
68212;SDS011;55035;47.792;8.724;2023-11-21T10:43:52;6.70;;;2.50;;
68212;SDS011;55035;47.792;8.724;2023-11-21T10:46:26;7.10;;;2.50;;
68212;SDS011;55035;47.792;8.724;2023-11-21T10:48:55;6.27;;;2.10;;
68212;SDS011;55035;47.792;8.724;2023-11-21T10:51:22;5.80;;;2.10;;
68212;SDS011;55035;47.792;8.724;2023-11-21T10:53:51;6.30;;;2.10;;
68212;SDS011;55035;47.792;8.724;2023-11-21T10:56:19;6.60;;;2.23;;
68212;SDS011;55035;47.792;8.724;2023-11-21T10:58:47;6.05;;;2.30;;
68212;SDS011;55035;47.792;8.724;2023-11-21T11:01:14;6.72;;;2.20;;
68212;SDS011;55035;47.792;8.724;2023-11-21T11:03:44;6.28;;;2.20;;
68212;SDS011;55035;47.792;8.724;2023-11-21T11:06:10;5.90;;;2.10;;
68212;SDS011;55035;47.792;8.724;2023-11-21T11:08:38;6.40;;;2.10;;
68212;SDS011;55035;47.792;8.724;2023-11-21T11:11:05;4.95;;;1.60;;
68212;SDS011;55035;47.792;8.724;2023-11-21T11:13:33;5.38;;;1.70;;
68212;SDS011;55035;47.792;8.724;2023-11-21T11:16:01;5.10;;;1.30;;
68212;SDS011;55035;47.792;8.724;2023-11-21T11:18:29;5.00;;;1.20;;
68212;SDS011;55035;47.792;8.724;2023-11-21T11:20:57;4.60;;;1.02;;
68212;SDS011;55035;47.792;8.724;2023-11-21T11:23:31;5.00;;;1.00;;
68212;SDS011;55035;47.792;8.724;2023-11-21T11:26:05;4.20;;;0.90;;
68212;SDS011;55035;47.792;8.724;2023-11-21T11:28:41;4.03;;;0.88;;
68212;SDS011;55035;47.792;8.724;2023-11-21T11:31:11;4.27;;;0.83;;
68212;SDS011;55035;47.792;8.724;2023-11-21T11:33:43;4.68;;;0.88;;
68212;SDS011;55035;47.792;8.724;2023-11-21T11:36:13;4.35;;;0.90;;
68212;SDS011;55035;47.792;8.724;2023-11-21T11:38:45;5.13;;;0.90;;
68212;SDS011;55035;47.792;8.724;2023-11-21T11:41:12;5.70;;;1.05;;
68212;SDS011;55035;47.792;8.724;2023-11-21T11:43:40;4.10;;;0.80;;
68212;SDS011;55035;47.792;8.724;2023-11-21T11:46:09;4.50;;;1.00;;
68212;SDS011;55035;47.792;8.724;2023-11-21T11:48:38;3.92;;;0.80;;
68212;SDS011;55035;47.792;8.724;2023-11-21T11:51:05;4.00;;;0.90;;
68212;SDS011;55035;47.792;8.724;2023-11-21T11:53:38;4.05;;;0.80;;
68212;SDS011;55035;47.792;8.724;2023-11-21T11:56:19;3.80;;;0.70;;
68212;SDS011;55035;47.792;8.724;2023-11-21T11:58:48;4.72;;;0.70;;
68212;SDS011;55035;47.792;8.724;2023-11-21T12:01:16;3.25;;;0.60;;
68212;SDS011;55035;47.792;8.724;2023-11-21T12:03:43;3.92;;;0.68;;
68212;SDS011;55035;47.792;8.724;2023-11-21T12:06:10;4.65;;;0.80;;
68212;SDS011;55035;47.792;8.724;2023-11-21T12:08:37;4.38;;;1.08;;
68212;SDS011;55035;47.792;8.724;2023-11-21T12:11:04;4.13;;;0.88;;
68212;SDS011;55035;47.792;8.724;2023-11-21T12:13:31;3.63;;;0.70;;
68212;SDS011;55035;47.792;8.724;2023-11-21T12:15:59;3.90;;;0.70;;
68212;SDS011;55035;47.792;8.724;2023-11-21T12:18:25;4.85;;;0.85;;
68212;SDS011;55035;47.792;8.724;2023-11-21T12:20:52;7.60;;;2.90;;
68212;SDS011;55035;47.792;8.724;2023-11-21T12:23:19;4.07;;;0.75;;
68212;SDS011;55035;47.792;8.724;2023-11-21T12:25:46;4.20;;;1.00;;
68212;SDS011;55035;47.792;8.724;2023-11-21T12:28:13;4.30;;;0.90;;
68212;SDS011;55035;47.792;8.724;2023-11-21T12:30:39;3.87;;;0.87;;
68212;SDS011;55035;47.792;8.724;2023-11-21T12:33:07;3.88;;;0.70;;
68212;SDS011;55035;47.792;8.724;2023-11-21T12:35:34;3.60;;;0.70;;
68212;SDS011;55035;47.792;8.724;2023-11-21T12:38:02;3.83;;;0.80;;
68212;SDS011;55035;47.792;8.724;2023-11-21T12:40:29;4.30;;;0.82;;
68212;SDS011;55035;47.792;8.724;2023-11-21T12:42:56;4.43;;;0.90;;
68212;SDS011;55035;47.792;8.724;2023-11-21T12:45:24;4.85;;;0.90;;
68212;SDS011;55035;47.792;8.724;2023-11-21T12:47:54;4.45;;;0.90;;
68212;SDS011;55035;47.792;8.724;2023-11-21T12:50:23;5.10;;;0.90;;
68212;SDS011;55035;47.792;8.724;2023-11-21T12:52:54;3.47;;;0.70;;
68212;SDS011;55035;47.792;8.724;2023-11-21T12:55:24;3.92;;;0.82;;
68212;SDS011;55035;47.792;8.724;2023-11-21T12:57:52;3.90;;;0.80;;
68212;SDS011;55035;47.792;8.724;2023-11-21T13:00:20;3.55;;;0.70;;
68212;SDS011;55035;47.792;8.724;2023-11-21T13:02:54;4.07;;;0.80;;
68212;SDS011;55035;47.792;8.724;2023-11-21T13:05:28;4.25;;;0.70;;
68212;SDS011;55035;47.792;8.724;2023-11-21T13:07:55;4.65;;;0.68;;
68212;SDS011;55035;47.792;8.724;2023-11-21T13:10:23;4.07;;;0.60;;
68212;SDS011;55035;47.792;8.724;2023-11-21T13:12:51;2.90;;;0.55;;
68212;SDS011;55035;47.792;8.724;2023-11-21T13:15:18;4.00;;;0.85;;
68212;SDS011;55035;47.792;8.724;2023-11-21T13:17:45;3.00;;;0.60;;
68212;SDS011;55035;47.792;8.724;2023-11-21T13:20:13;4.53;;;0.70;;
68212;SDS011;55035;47.792;8.724;2023-11-21T13:22:46;3.42;;;0.60;;
68212;SDS011;55035;47.792;8.724;2023-11-21T13:25:14;3.00;;;0.53;;
68212;SDS011;55035;47.792;8.724;2023-11-21T13:27:43;3.33;;;0.60;;
68212;SDS011;55035;47.792;8.724;2023-11-21T13:30:11;4.10;;;0.65;;
68212;SDS011;55035;47.792;8.724;2023-11-21T13:32:41;3.15;;;0.50;;
68212;SDS011;55035;47.792;8.724;2023-11-21T13:35:07;3.08;;;0.60;;
68212;SDS011;55035;47.792;8.724;2023-11-21T13:37:45;3.47;;;0.60;;
68212;SDS011;55035;47.792;8.724;2023-11-21T13:40:14;3.40;;;0.63;;
68212;SDS011;55035;47.792;8.724;2023-11-21T13:42:45;3.38;;;0.60;;
68212;SDS011;55035;47.792;8.724;2023-11-21T13:45:12;3.25;;;0.60;;
68212;SDS011;55035;47.792;8.724;2023-11-21T13:47:39;5.18;;;1.10;;
68212;SDS011;55035;47.792;8.724;2023-11-21T13:50:07;3.67;;;0.70;;
68212;SDS011;55035;47.792;8.724;2023-11-21T13:52:42;4.10;;;0.60;;
68212;SDS011;55035;47.792;8.724;2023-11-21T13:55:11;5.10;;;1.30;;
68212;SDS011;55035;47.792;8.724;2023-11-21T13:57:41;4.70;;;0.93;;
68212;SDS011;55035;47.792;8.724;2023-11-21T14:00:09;3.45;;;0.70;;
68212;SDS011;55035;47.792;8.724;2023-11-21T14:02:51;3.35;;;0.60;;
68212;SDS011;55035;47.792;8.724;2023-11-21T14:05:18;3.22;;;0.60;;
68212;SDS011;55035;47.792;8.724;2023-11-21T14:07:54;3.92;;;0.70;;
68212;SDS011;55035;47.792;8.724;2023-11-21T14:10:29;3.53;;;0.60;;
68212;SDS011;55035;47.792;8.724;2023-11-21T14:13:02;3.53;;;0.60;;
68212;SDS011;55035;47.792;8.724;2023-11-21T14:15:29;4.90;;;0.80;;
68212;SDS011;55035;47.792;8.724;2023-11-21T14:17:58;3.92;;;0.70;;
68212;SDS011;55035;47.792;8.724;2023-11-21T14:20:25;3.78;;;0.70;;
68212;SDS011;55035;47.792;8.724;2023-11-21T14:22:52;3.70;;;0.68;;
68212;SDS011;55035;47.792;8.724;2023-11-21T14:25:19;3.75;;;0.80;;
68212;SDS011;55035;47.792;8.724;2023-11-21T14:27:48;3.35;;;0.60;;
68212;SDS011;55035;47.792;8.724;2023-11-21T14:30:14;3.63;;;0.67;;
68212;SDS011;55035;47.792;8.724;2023-11-21T14:32:44;3.60;;;0.70;;
68212;SDS011;55035;47.792;8.724;2023-11-21T14:35:11;3.42;;;0.68;;
68212;SDS011;55035;47.792;8.724;2023-11-21T14:37:38;3.28;;;0.50;;
68212;SDS011;55035;47.792;8.724;2023-11-21T14:40:05;3.65;;;0.70;;
68212;SDS011;55035;47.792;8.724;2023-11-21T14:42:33;3.60;;;0.70;;